createdAt,value
2023-02-02T00:00:26.918Z,6.36
2023-02-02T00:02:55.506Z,6.42
2023-02-02T00:05:24.004Z,6.42
2023-02-02T00:07:52.943Z,6.49
2023-02-02T00:10:21.274Z,6.41
2023-02-02T00:12:49.483Z,6.44
2023-02-02T00:15:21.157Z,6.53
2023-02-02T00:17:49.331Z,6.51
2023-02-02T00:20:18.095Z,6.44
2023-02-02T00:22:48.201Z,6.51
2023-02-02T00:25:16.762Z,6.54
2023-02-02T00:27:46.984Z,6.47
2023-02-02T00:30:15.654Z,6.37
2023-02-02T00:32:48.609Z,6.36
2023-02-02T00:35:17.167Z,6.46
2023-02-02T00:37:45.282Z,6.27
2023-02-02T00:40:14.079Z,6.22
2023-02-02T00:42:43.205Z,6.18
2023-02-02T00:45:16.812Z,6.16
2023-02-02T00:47:48.784Z,6.20
2023-02-02T00:50:19.883Z,6.12
2023-02-02T00:52:48.883Z,6.06
2023-02-02T00:55:18.256Z,6.11
2023-02-02T00:57:47.680Z,6.01
2023-02-02T01:00:18.179Z,5.90
2023-02-02T01:02:48.177Z,5.88
2023-02-02T01:05:17.328Z,5.91
2023-02-02T01:07:46.335Z,5.80
2023-02-02T01:10:17.880Z,5.72
2023-02-02T01:12:46.477Z,5.77
2023-02-02T01:15:15.476Z,5.74
2023-02-02T01:17:44.177Z,5.73
2023-02-02T01:20:18.500Z,5.75
2023-02-02T01:22:48.756Z,5.68
2023-02-02T01:25:17.318Z,5.63
2023-02-02T01:27:45.630Z,5.60
2023-02-02T01:30:14.632Z,5.67
2023-02-02T01:32:42.826Z,5.64
2023-02-02T01:35:13.412Z,5.63
2023-02-02T01:37:41.614Z,5.65
2023-02-02T01:40:11.929Z,5.54
2023-02-02T01:42:40.063Z,5.55
2023-02-02T01:45:32.384Z,5.50
2023-02-02T01:48:01.691Z,5.47
2023-02-02T01:50:35.699Z,5.51
2023-02-02T01:53:06.565Z,5.53
2023-02-02T01:55:39.073Z,5.55
2023-02-02T01:58:11.767Z,5.53
2023-02-02T02:00:42.343Z,5.53
2023-02-02T02:03:13.447Z,5.54
2023-02-02T02:05:47.394Z,5.62
2023-02-02T02:08:19.420Z,5.54
2023-02-02T02:10:48.459Z,5.63
2023-02-02T02:13:17.924Z,5.66
2023-02-02T02:16:11.009Z,5.66
2023-02-02T02:18:46.985Z,5.59
2023-02-02T02:21:56.563Z,5.54
2023-02-02T02:25:21.572Z,5.62
2023-02-02T02:28:24.189Z,5.57
2023-02-02T02:31:23.191Z,5.62
2023-02-02T02:33:59.680Z,5.66
2023-02-02T02:36:36.918Z,5.71
2023-02-02T02:39:14.288Z,5.75
2023-02-02T02:41:46.868Z,5.75
2023-02-02T02:44:17.945Z,5.79
2023-02-02T02:46:46.495Z,5.85
2023-02-02T02:49:16.176Z,5.85
2023-02-02T02:51:47.829Z,5.83
2023-02-02T02:54:32.050Z,5.98
2023-02-02T02:57:27.606Z,5.88
2023-02-02T03:00:02.180Z,5.82
2023-02-02T03:02:43.261Z,5.77
2023-02-02T03:05:30.160Z,5.68
2023-02-02T03:08:07.088Z,5.69
2023-02-02T03:10:37.124Z,5.75
2023-02-02T03:13:09.780Z,5.78
2023-02-02T03:15:41.418Z,5.86
2023-02-02T03:18:10.173Z,5.81
2023-02-02T03:20:40.845Z,5.78
2023-02-02T03:23:09.044Z,5.77
2023-02-02T03:25:38.043Z,5.77
2023-02-02T03:28:07.227Z,5.76
2023-02-02T03:30:36.287Z,5.75
2023-02-02T03:33:06.807Z,5.77
2023-02-02T03:35:35.347Z,5.81
2023-02-02T03:38:06.381Z,5.80
2023-02-02T03:40:34.798Z,5.85
2023-02-02T03:43:03.262Z,5.85
2023-02-02T03:45:35.288Z,5.79
2023-02-02T03:48:04.724Z,5.96
2023-02-02T03:50:33.865Z,5.90
2023-02-02T03:53:04.014Z,5.89
2023-02-02T03:55:35.045Z,6.01
2023-02-02T03:58:03.206Z,5.94
2023-02-02T04:00:31.322Z,5.97
2023-02-02T04:03:00.310Z,5.99
2023-02-02T04:05:29.819Z,5.98
2023-02-02T04:07:57.973Z,5.96
2023-02-02T04:10:26.128Z,5.90
2023-02-02T04:12:55.746Z,5.85
2023-02-02T04:15:24.924Z,5.96
2023-02-02T04:17:53.218Z,5.98
2023-02-02T04:20:21.474Z,5.91
2023-02-02T04:22:49.933Z,5.86
2023-02-02T04:25:18.302Z,5.81
2023-02-02T04:27:46.744Z,5.76
2023-02-02T04:30:17.805Z,5.89
2023-02-02T04:32:46.233Z,5.76
2023-02-02T04:35:15.199Z,5.80
2023-02-02T04:37:43.490Z,5.87
2023-02-02T04:40:13.286Z,5.89
2023-02-02T04:42:41.678Z,5.87
2023-02-02T04:45:10.636Z,5.85
2023-02-02T04:47:42.655Z,5.88
2023-02-02T04:50:12.102Z,5.90
2023-02-02T04:52:40.557Z,5.85
2023-02-02T04:55:09.569Z,5.86
2023-02-02T04:57:37.725Z,5.81
2023-02-02T05:00:06.978Z,5.88
2023-02-02T05:02:36.740Z,5.87
2023-02-02T05:05:09.106Z,5.99
2023-02-02T05:07:37.362Z,6.00
2023-02-02T05:10:08.482Z,5.96
2023-02-02T05:12:36.854Z,5.98
2023-02-02T05:15:06.256Z,6.11
2023-02-02T05:17:34.605Z,6.01
2023-02-02T05:20:03.140Z,6.15
2023-02-02T05:22:33.116Z,6.16
2023-02-02T05:25:04.296Z,6.13
2023-02-02T05:27:32.587Z,6.18
2023-02-02T05:30:00.798Z,6.19
2023-02-02T05:32:29.785Z,6.19
2023-02-02T05:34:58.147Z,6.13
2023-02-02T05:37:26.732Z,6.15
2023-02-02T05:39:56.496Z,6.21
2023-02-02T05:42:27.910Z,6.14
2023-02-02T05:44:56.298Z,6.18
2023-02-02T05:47:27.084Z,6.16
2023-02-02T05:49:55.337Z,6.12
2023-02-02T05:52:25.916Z,6.12
2023-02-02T05:54:54.161Z,6.19
2023-02-02T05:57:23.739Z,6.15
2023-02-02T05:59:51.903Z,6.11
2023-02-02T06:02:21.108Z,6.26
2023-02-02T06:04:49.300Z,6.24
2023-02-02T06:07:17.451Z,6.16
2023-02-02T06:09:45.646Z,6.15
2023-02-02T06:12:13.996Z,6.22
2023-02-02T06:14:43.441Z,6.25
2023-02-02T06:17:12.130Z,6.21
2023-02-02T06:19:40.410Z,6.18
2023-02-02T06:22:08.730Z,6.11
2023-02-02T06:24:37.438Z,6.12
2023-02-02T06:27:05.794Z,6.15
2023-02-02T06:29:35.115Z,6.12
2023-02-02T06:32:05.069Z,6.22
2023-02-02T06:34:33.362Z,6.12
2023-02-02T06:37:02.202Z,6.08
2023-02-02T06:39:30.645Z,6.15
2023-02-02T06:42:02.042Z,6.11
2023-02-02T06:44:34.411Z,6.15
2023-02-02T06:47:06.672Z,6.07
2023-02-02T06:49:35.186Z,6.12
2023-02-02T06:52:03.622Z,6.06
2023-02-02T06:54:31.722Z,6.10
2023-02-02T06:57:00.126Z,6.09
2023-02-02T06:59:28.273Z,6.11
2023-02-02T07:01:56.672Z,6.24
2023-02-02T07:04:27.162Z,6.09
2023-02-02T07:06:55.591Z,6.14
2023-02-02T07:09:24.168Z,6.17
2023-02-02T07:11:52.549Z,6.16
2023-02-02T07:14:20.623Z,6.21
2023-02-02T07:16:48.877Z,6.20
2023-02-02T07:19:17.120Z,6.30
2023-02-02T07:21:53.509Z,6.26
2023-02-02T07:24:21.687Z,6.31
2023-02-02T07:26:49.981Z,6.25
2023-02-02T07:29:18.240Z,6.26
2023-02-02T07:31:46.667Z,6.36
2023-02-02T07:34:14.993Z,6.32
2023-02-02T07:36:43.384Z,6.37
2023-02-02T07:39:13.988Z,6.41
2023-02-02T07:41:43.835Z,6.29
2023-02-02T07:44:24.683Z,6.34
2023-02-02T07:46:53.173Z,6.42
2023-02-02T07:49:22.691Z,6.40
2023-02-02T07:51:50.892Z,6.47
2023-02-02T07:54:20.361Z,6.44
2023-02-02T07:56:51.787Z,6.50
2023-02-02T07:59:20.324Z,6.52
2023-02-02T08:01:48.433Z,6.44
2023-02-02T08:04:17.238Z,6.54
2023-02-02T08:06:45.725Z,6.46
2023-02-02T08:09:14.695Z,6.49
2023-02-02T08:11:44.424Z,6.70
2023-02-02T08:14:14.200Z,6.63
2023-02-02T08:16:42.379Z,6.74
2023-02-02T08:19:10.999Z,6.67
2023-02-02T08:21:39.319Z,6.74
2023-02-02T08:24:07.685Z,6.66
2023-02-02T08:26:36.110Z,6.64
2023-02-02T08:29:08.086Z,6.75
2023-02-02T08:31:38.220Z,6.68
2023-02-02T08:34:06.819Z,6.80
2023-02-02T08:36:35.940Z,6.81
2023-02-02T08:39:06.839Z,6.92
2023-02-02T08:41:37.857Z,6.90
2023-02-02T08:44:11.171Z,6.98
2023-02-02T08:46:39.902Z,6.91
2023-02-02T08:49:09.888Z,7.18
2023-02-02T08:51:38.625Z,7.14
2023-02-02T08:54:07.114Z,7.16
2023-02-02T08:56:35.471Z,7.13
2023-02-02T08:59:05.264Z,7.27
2023-02-02T09:01:35.398Z,7.23
2023-02-02T09:04:09.378Z,7.24
2023-02-02T09:06:40.523Z,7.40
2023-02-02T09:09:10.825Z,7.37
2023-02-02T09:11:40.613Z,7.47
2023-02-02T09:14:11.731Z,7.33
2023-02-02T09:16:41.795Z,7.41
2023-02-02T09:19:12.013Z,7.37
2023-02-02T09:21:40.513Z,7.38
2023-02-02T09:24:10.713Z,7.43
2023-02-02T09:26:40.365Z,7.49
2023-02-02T09:29:09.557Z,7.53
2023-02-02T09:31:39.171Z,7.60
2023-02-02T09:34:12.031Z,7.57
2023-02-02T09:36:41.470Z,7.66
2023-02-02T09:39:12.597Z,7.54
2023-02-02T09:42:19.180Z,7.62
2023-02-02T09:44:58.252Z,7.78
2023-02-02T09:47:39.339Z,7.88
2023-02-02T09:50:18.368Z,8.01
2023-02-02T09:52:52.486Z,8.08
2023-02-02T09:55:30.050Z,8.18
2023-02-02T09:58:05.360Z,8.21
2023-02-02T10:00:35.490Z,8.17
2023-02-02T10:03:12.743Z,8.11
2023-02-02T10:05:51.367Z,8.08
2023-02-02T10:08:34.822Z,8.01
2023-02-02T10:11:10.280Z,7.97
2023-02-02T10:13:43.520Z,7.90
2023-02-02T10:16:18.086Z,7.87
2023-02-02T10:18:52.951Z,7.88
2023-02-02T10:21:32.952Z,7.87
2023-02-02T10:24:04.495Z,7.81
2023-02-02T10:26:39.252Z,7.76
2023-02-02T10:29:16.608Z,7.69
2023-02-02T10:31:53.461Z,7.72
2023-02-02T10:34:26.922Z,7.65
2023-02-02T10:37:08.711Z,7.74
2023-02-02T10:39:51.750Z,7.71
2023-02-02T10:42:32.382Z,7.63
2023-02-02T10:45:03.973Z,7.65
2023-02-02T10:47:34.767Z,7.71
2023-02-02T10:50:16.041Z,7.72
2023-02-02T10:52:53.765Z,7.61
2023-02-02T10:55:32.633Z,7.64
2023-02-02T10:58:07.945Z,7.62
2023-02-02T11:00:45.516Z,7.68
2023-02-02T11:03:16.401Z,7.67
2023-02-02T11:06:02.698Z,7.77
2023-02-02T11:08:35.961Z,7.70
2023-02-02T11:11:12.853Z,7.77
2023-02-02T11:13:47.596Z,7.72
2023-02-02T11:16:32.610Z,7.72
2023-02-02T11:19:24.493Z,7.78
2023-02-02T11:21:56.138Z,7.79
2023-02-02T11:24:29.085Z,7.89
2023-02-02T11:27:03.206Z,8.11
2023-02-02T11:29:42.039Z,8.07
2023-02-02T11:32:25.795Z,7.99
2023-02-02T11:35:17.264Z,8.09
2023-02-02T11:37:57.859Z,8.13
2023-02-02T11:40:41.269Z,8.10
2023-02-02T11:43:18.766Z,8.08
2023-02-02T11:45:55.194Z,8.19
2023-02-02T11:48:28.140Z,8.19
2023-02-02T11:50:58.758Z,8.34
2023-02-02T11:53:30.966Z,8.34
2023-02-02T11:56:04.015Z,8.26
2023-02-02T11:58:44.689Z,8.44
2023-02-02T12:01:25.413Z,8.39
2023-02-02T12:03:55.997Z,8.51
2023-02-02T12:06:25.837Z,8.58
2023-02-02T12:08:56.314Z,8.66
2023-02-02T12:11:40.433Z,8.74
2023-02-02T12:14:23.759Z,8.75
2023-02-02T12:17:07.256Z,8.75
2023-02-02T12:19:54.864Z,8.75
2023-02-02T12:22:38.710Z,8.85
2023-02-02T12:25:37.434Z,9.06
2023-02-02T12:28:21.444Z,9.07
2023-02-02T12:30:57.969Z,9.06
2023-02-02T12:33:40.017Z,9.02
2023-02-02T12:36:22.339Z,8.98
2023-02-02T12:39:09.544Z,8.93
2023-02-02T12:41:52.931Z,8.96
2023-02-02T12:44:33.504Z,8.95
2023-02-02T12:47:10.303Z,8.98
2023-02-02T12:49:57.215Z,9.00
2023-02-02T12:52:40.569Z,9.00
2023-02-02T12:55:24.797Z,8.98
2023-02-02T12:58:07.757Z,8.97
2023-02-02T13:01:03.952Z,8.94
2023-02-02T13:03:42.006Z,8.83
2023-02-02T13:06:32.959Z,8.79
2023-02-02T13:09:09.944Z,8.72
2023-02-02T13:11:42.896Z,8.61
2023-02-02T13:14:18.661Z,8.61
2023-02-02T13:16:52.866Z,8.55
2023-02-02T13:19:30.254Z,8.55
2023-02-02T13:22:01.971Z,8.65
2023-02-02T13:24:32.572Z,8.63
2023-02-02T13:27:04.234Z,8.69
2023-02-02T13:29:42.623Z,8.71
2023-02-02T13:32:24.542Z,8.78
2023-02-02T13:34:58.707Z,8.88
2023-02-02T13:37:36.916Z,8.94
2023-02-02T13:40:15.473Z,9.06
2023-02-02T13:42:48.919Z,9.12
2023-02-02T13:45:41.588Z,9.09
2023-02-02T13:48:23.611Z,9.13
2023-02-02T13:51:10.711Z,9.19
2023-02-02T13:53:55.136Z,9.18
2023-02-02T13:56:39.821Z,9.39
2023-02-02T13:59:26.744Z,9.34
2023-02-02T14:01:59.818Z,9.35
2023-02-02T14:04:32.181Z,9.36
2023-02-02T14:07:05.755Z,9.40
2023-02-02T14:09:36.907Z,9.35
2023-02-02T14:12:08.988Z,9.22
2023-02-02T14:14:40.322Z,9.17
2023-02-02T14:17:47.113Z,9.17
2023-02-02T14:20:50.702Z,9.23
2023-02-02T14:23:55.645Z,9.24
2023-02-02T14:26:46.676Z,9.29
2023-02-02T14:29:39.636Z,9.15
2023-02-02T14:32:30.902Z,9.10
2023-02-02T14:35:00.356Z,9.03
2023-02-02T14:37:56.138Z,9.00
2023-02-02T14:40:47.036Z,9.05
2023-02-02T14:43:47.921Z,9.15
2023-02-02T14:46:35.060Z,9.20
2023-02-02T14:49:13.241Z,9.14
2023-02-02T14:51:57.434Z,8.98
2023-02-02T14:54:35.058Z,8.96
2023-02-02T14:57:06.613Z,8.91
2023-02-02T14:59:38.521Z,8.91
2023-02-02T15:02:19.210Z,8.81
2023-02-02T15:04:48.324Z,8.74
2023-02-02T15:07:51.867Z,8.69
2023-02-02T15:10:53.913Z,8.65
2023-02-02T15:13:26.389Z,8.60
2023-02-02T15:16:07.620Z,8.63
2023-02-02T15:18:44.746Z,8.55
2023-02-02T15:21:18.284Z,8.59
2023-02-02T15:23:48.277Z,8.50
2023-02-02T15:26:24.279Z,8.49
2023-02-02T15:28:58.127Z,8.47
2023-02-02T15:31:32.676Z,8.44
2023-02-02T15:34:04.906Z,8.36
2023-02-02T15:36:36.992Z,8.35
2023-02-02T15:39:12.303Z,8.28
2023-02-02T15:41:45.256Z,8.30
2023-02-02T15:44:27.192Z,8.28
2023-02-02T15:46:57.988Z,8.26
2023-02-02T15:49:34.750Z,8.36
2023-02-02T15:52:13.659Z,8.29
2023-02-02T15:54:52.617Z,8.26
2023-02-02T15:57:28.342Z,8.24
2023-02-02T15:59:59.012Z,8.13
2023-02-02T16:02:41.455Z,8.15
2023-02-02T16:05:26.796Z,8.14
2023-02-02T16:08:04.928Z,8.12
2023-02-02T16:10:34.989Z,8.11
2023-02-02T16:13:03.539Z,8.08
2023-02-02T16:15:33.813Z,8.02
2023-02-02T16:18:03.542Z,7.98
2023-02-02T16:20:37.426Z,7.99
2023-02-02T16:23:12.431Z,8.01
2023-02-02T16:25:57.393Z,8.01
2023-02-02T16:28:26.151Z,8.01
2023-02-02T16:30:57.379Z,7.93
2023-02-02T16:33:39.558Z,8.06
2023-02-02T16:36:26.223Z,8.03
2023-02-02T16:38:56.230Z,7.92
2023-02-02T16:41:33.776Z,7.96
2023-02-02T16:44:30.878Z,8.04
2023-02-02T16:47:01.466Z,8.02
2023-02-02T16:49:31.206Z,7.97
2023-02-02T16:52:09.108Z,7.97
2023-02-02T16:54:38.275Z,7.99
2023-02-02T16:57:06.714Z,7.88
2023-02-02T16:59:37.664Z,8.00
2023-02-02T17:02:24.610Z,7.92
2023-02-02T17:04:58.234Z,7.91
2023-02-02T17:07:27.706Z,7.90
2023-02-02T17:10:14.576Z,7.91
2023-02-02T17:12:43.208Z,7.88
2023-02-02T17:15:29.493Z,7.77
2023-02-02T17:17:59.458Z,7.81
2023-02-02T17:20:27.833Z,7.70
2023-02-02T17:22:59.842Z,7.73
2023-02-02T17:25:34.287Z,7.78
2023-02-02T17:28:05.715Z,7.68
2023-02-02T17:30:34.682Z,7.67
2023-02-02T17:33:06.656Z,7.66
2023-02-02T17:35:52.756Z,7.67
2023-02-02T17:38:23.353Z,7.63
2023-02-02T17:40:52.197Z,7.53
2023-02-02T17:43:20.293Z,7.53
2023-02-02T17:45:49.209Z,7.50
2023-02-02T17:48:18.968Z,7.59
2023-02-02T17:50:48.045Z,7.52
2023-02-02T17:53:18.386Z,7.58
2023-02-02T17:55:47.903Z,7.44
2023-02-02T17:58:17.529Z,7.39
2023-02-02T18:00:47.632Z,7.52
2023-02-02T18:03:22.217Z,7.48
2023-02-02T18:05:51.375Z,7.50
2023-02-02T18:08:20.705Z,7.37
2023-02-02T18:10:50.462Z,7.37
2023-02-02T18:13:22.425Z,7.43
2023-02-02T18:15:53.553Z,7.38
2023-02-02T18:18:27.278Z,7.38
2023-02-02T18:20:55.533Z,7.41
2023-02-02T18:23:24.593Z,7.35
2023-02-02T18:25:53.714Z,7.36
2023-02-02T18:28:22.108Z,7.35
2023-02-02T18:30:50.438Z,7.22
2023-02-02T18:33:19.974Z,7.24
2023-02-02T18:35:55.380Z,7.32
2023-02-02T18:38:23.888Z,7.22
2023-02-02T18:40:57.028Z,7.21
2023-02-02T18:43:25.605Z,7.06
2023-02-02T18:45:59.919Z,7.21
2023-02-02T18:48:28.506Z,7.10
2023-02-02T18:50:58.575Z,7.04
2023-02-02T18:53:28.320Z,7.01
2023-02-02T18:55:56.619Z,7.04
2023-02-02T18:58:26.303Z,7.07
2023-02-02T19:00:54.662Z,7.21
2023-02-02T19:03:23.313Z,7.11
2023-02-02T19:06:09.761Z,7.08
2023-02-02T19:08:40.960Z,7.09
2023-02-02T19:11:19.964Z,7.11
2023-02-02T19:13:48.857Z,7.09
2023-02-02T19:16:25.787Z,7.01
2023-02-02T19:18:57.398Z,7.01
2023-02-02T19:21:30.678Z,7.01
2023-02-02T19:24:00.649Z,7.06
2023-02-02T19:26:30.269Z,7.02
2023-02-02T19:29:13.158Z,7.07
2023-02-02T19:31:41.564Z,7.03
2023-02-02T19:34:13.304Z,6.94
2023-02-02T19:36:46.677Z,6.95
2023-02-02T19:39:19.463Z,7.01
2023-02-02T19:41:50.699Z,6.98
2023-02-02T19:44:20.515Z,6.98
2023-02-02T19:46:50.926Z,6.93
2023-02-02T19:49:28.418Z,6.93
2023-02-02T19:51:59.335Z,6.91
2023-02-02T19:54:34.880Z,6.96
2023-02-02T19:57:14.890Z,6.89
2023-02-02T19:59:47.009Z,6.83
2023-02-02T20:02:39.748Z,6.97
2023-02-02T20:05:18.572Z,6.89
2023-02-02T20:07:47.736Z,6.78
2023-02-02T20:10:25.685Z,6.86
2023-02-02T20:12:54.391Z,6.76
2023-02-02T20:15:30.259Z,6.85
2023-02-02T20:18:01.440Z,6.76
2023-02-02T20:20:36.076Z,6.86
2023-02-02T20:23:04.463Z,6.81
2023-02-02T20:25:34.321Z,6.77
2023-02-02T20:28:09.625Z,6.75
2023-02-02T20:30:37.869Z,6.81
2023-02-02T20:33:21.125Z,6.83
2023-02-02T20:35:49.936Z,6.80
2023-02-02T20:38:21.487Z,6.85
2023-02-02T20:40:52.109Z,6.88
2023-02-02T20:43:20.728Z,6.86
2023-02-02T20:45:50.222Z,6.88
2023-02-02T20:48:18.913Z,6.86
2023-02-02T20:50:48.038Z,6.78
2023-02-02T20:53:16.594Z,6.76
2023-02-02T20:55:45.061Z,6.88
2023-02-02T20:58:14.653Z,6.99
2023-02-02T21:00:43.124Z,6.93
2023-02-02T21:03:13.187Z,6.87
2023-02-02T21:05:41.439Z,6.78
2023-02-02T21:08:09.710Z,6.81
2023-02-02T21:10:39.509Z,6.81
2023-02-02T21:13:07.969Z,6.90
2023-02-02T21:15:37.953Z,6.86
2023-02-02T21:18:08.888Z,6.94
2023-02-02T21:20:37.880Z,6.90
2023-02-02T21:23:08.482Z,6.87
2023-02-02T21:25:36.826Z,6.87
2023-02-02T21:28:05.425Z,7.02
2023-02-02T21:30:35.110Z,6.94
2023-02-02T21:33:05.466Z,6.93
2023-02-02T21:35:34.112Z,6.94
2023-02-02T21:38:08.536Z,7.08
2023-02-02T21:40:36.777Z,6.95
2023-02-02T21:43:14.880Z,6.87
2023-02-02T21:45:46.262Z,6.84
2023-02-02T21:48:38.757Z,6.96
2023-02-02T21:51:23.430Z,6.97
2023-02-02T21:53:52.920Z,6.87
2023-02-02T21:56:28.415Z,6.95
2023-02-02T21:59:00.329Z,7.06
2023-02-02T22:01:36.002Z,7.06
2023-02-02T22:04:16.142Z,6.99
2023-02-02T22:06:46.880Z,7.02
2023-02-02T22:09:20.124Z,7.00
2023-02-02T22:11:51.390Z,7.04
2023-02-02T22:14:26.269Z,6.99
2023-02-02T22:16:57.823Z,6.97
2023-02-02T22:19:35.067Z,7.01
2023-02-02T22:22:16.184Z,7.00
2023-02-02T22:24:45.607Z,6.98
2023-02-02T22:27:24.747Z,6.85
2023-02-02T22:29:59.279Z,6.88
2023-02-02T22:32:27.580Z,6.78
2023-02-02T22:34:57.097Z,6.77
2023-02-02T22:37:25.271Z,6.77
2023-02-02T22:39:53.496Z,6.72
2023-02-02T22:42:22.210Z,6.78
2023-02-02T22:44:51.107Z,6.68
2023-02-02T22:47:19.539Z,6.61
2023-02-02T22:49:47.675Z,6.67
2023-02-02T22:52:17.215Z,6.68
2023-02-02T22:54:45.503Z,6.61
2023-02-02T22:57:14.059Z,6.64
2023-02-02T22:59:42.375Z,6.67
2023-02-02T23:02:10.964Z,6.61
2023-02-02T23:04:39.099Z,6.63
2023-02-02T23:07:07.288Z,6.80
2023-02-02T23:09:36.955Z,6.68
2023-02-02T23:12:05.883Z,6.57
2023-02-02T23:14:34.358Z,6.60
2023-02-02T23:17:02.732Z,6.58
2023-02-02T23:19:31.205Z,6.61
2023-02-02T23:21:59.398Z,6.52
2023-02-02T23:24:27.657Z,6.57
2023-02-02T23:26:58.475Z,6.60
2023-02-02T23:29:26.662Z,6.70
2023-02-02T23:31:55.108Z,6.79
2023-02-02T23:34:23.466Z,6.74
2023-02-02T23:36:53.518Z,6.71
2023-02-02T23:39:21.801Z,6.68
2023-02-02T23:41:49.888Z,6.64
2023-02-02T23:44:20.802Z,6.72
2023-02-02T23:46:49.889Z,6.62
2023-02-02T23:49:18.929Z,6.63
2023-02-02T23:51:47.242Z,6.70
2023-02-02T23:54:15.861Z,6.68
2023-02-02T23:56:44.652Z,6.75
2023-02-02T23:59:13.395Z,6.79
